A- A+ FrançaisEnglishEspañol中国

le plus proche LFDJ Pamiers-Les-PujolsLFBT Tarbes-Lourdes-PyrénéesLFBO Toulouse-BlagnacLFML Marseille

manche à air

La météo aéronautique pour les pilotes, la préparation du vol avec les METAR (METeorological Aerodrome Report, message d'observation des conditions météorologiques pour l'aviation) et Les TAF (Terminal Aerodrome Forecast : message de prévision à court terme des conditions météorologiques pour l'aviation). Et les autres ressources comme les VAC (Visual Approch Chart) et les NOTAM (Notice To Airman) pour préprer les vols.

Aéroport Mecheria (Algérie) / OACI DAAY/ IATA MZW

L'altitude de l'aéroport Mecheria est de 1175 m=3855 ft. Il est situé à proximité de Mecheria (Algérie). La météo générale à 5 jours est disponible pour Naama situé à 30.7 km.

METAR de l'aéroport Mecheria - DAAY

DAAY 110900Z 35018KT 8000 SCT020 SCT026 06/01 Q1019

Décodage du METAR de l'aéroport Mecheria (DZ)

METAR émis par DAAY le lundi 11 novembre 2019 à 09:00 heure TU. Attention ce METAR est obsolète car il a été émis il y a 2 heure et 1 minutes.

La visibilité est de 8 km=5 sm.

La température est de 6°C=43 °F et le point rosée est de 1°C=34 °F . Ce qui correspond à 70% d'humidité relative.

Le QNH est de 1019 hPa=30.09 inHg

Vent de 18 kt=33 km/h, orienté à 350°.

Nuages : Nuages épars à 2000 ft=610 mètres. Nuages épars à 2600 ft=790 mètres.

TAF de l'aéroport Mecheria - DAAY

DAAY 110800Z 1109/1118 31016KT 8000 SCT020 BKN026 PROB40 TEMPO 1113/1118 8000 RA BKN026

DAAY 110800Z 1109/1118 31016KT 8000 nuages épars à 020 couverture nuageuse fragmentée à 026 probabilité de 40% d'avoir temporairement 1113/1118 8000 pluie couverture nuageuse fragmentée à 026

Aéroport à proximité de Mecheria

Météo générale à 5 jours à Naama (30.7 km)DAOS Aéroport Sidi Bel Abbes (185 km)DAOV Aéroport Ghriss (189 km)DAON Aéroport Zenata Messali el Hadj (199 km)GMFO Aéroport Oujda Angads (208 km)DAOL Aéroport Oran Tafaroui (225 km)DAOO Aéroport Oran Es Senia (235 km)

Vue aérienne de l'aéroport Mecheria

NOTAM de l'aéroport Mecheria

Les NOTAM sont fournis sans aucune garantie de leur actualité. Le pilote est le seul responsable de la vérification de sa validité avant de l'utiliser opérationnellement pour préparer un vol ou l'utiliser lors de sa navigation.

Pas de NOTAM

Sources des données